Time,TemperatureF,DewpointF,PressureIn,WindDirection,WindDirectionDegrees,WindSpeedMPH,WindSpeedGustMPH,Humidity,HourlyPrecipIn,Conditions,Clouds,dailyrainin,SoftwareType,DateUTC
2013-01-22 00:00:00,20.7,1.2,30.09,WSW,248,3.4,5.4,42,0.00,,FEW045,0.00,VWS V14.01,2013-01-22 05:00:00,
2013-01-22 00:06:00,20.3,1.4,30.09,North,0,3.1,8.7,43,0.00,,FEW045,0.00,VWS V14.01,2013-01-22 05:06:00,
2013-01-22 00:11:00,20.1,1.2,30.09,SE,135,3.1,5.6,43,0.00,,FEW045,0.00,VWS V14.01,2013-01-22 05:11:00,
2013-01-22 00:16:00,19.9,1.1,30.09,WSW,248,2.9,4.3,43,0.00,,FEW045,0.00,VWS V14.01,2013-01-22 05:16:00,
2013-01-22 00:21:00,19.8,0.9,30.09,West,270,4.0,11.0,43,0.00,,FEW045,0.00,VWS V14.01,2013-01-22 05:21:00,
2013-01-22 00:26:00,19.6,0.7,30.09,SW,225,2.0,4.7,43,0.00,,FEW045,0.13,VWS V14.01,2013-01-22 05:26:00,
2013-01-22 00:31:00,19.6,0.7,30.09,SSW,202,2.9,4.3,43,0.00,,FEW045,0.00,VWS V14.01,2013-01-22 05:31:00,
2013-01-22 00:36:00,19.4,1.1,30.09,South,180,3.4,3.6,44,0.00,,FEW045,0.00,VWS V14.01,2013-01-22 05:36:00,
2013-01-22 00:41:00,19.0,0.7,30.09,ENE,68,1.1,2.5,44,0.00,,FEW045,0.00,VWS V14.01,2013-01-22 05:41:00,
2013-01-22 00:46:00,19.0,0.7,30.09,WNW,292,3.6,12.5,44,0.00,,FEW045,0.00,VWS V14.01,2013-01-22 05:46:00,
2013-01-22 00:51:00,18.9,0.6,30.09,South,180,2.9,9.8,44,0.00,,FEW045,0.00,VWS V14.01,2013-01-22 05:51:00,
2013-01-22 00:56:00,18.7,0.4,30.09,WNW,292,2.2,5.8,44,0.00,,FEW045,0.00,VWS V14.01,2013-01-22 05:56:00,
2013-01-22 01:01:00,18.3,0.1,30.09,East,90,2.5,3.4,44,0.00,,CLR,0.00,VWS V14.01,2013-01-22 06:01:00,
2013-01-22 01:06:00,18.0,-0.3,30.09,WSW,248,1.6,2.2,44,0.00,,CLR,0.00,VWS V14.01,2013-01-22 06:06:00,
2013-01-22 01:11:00,18.0,-0.3,30.09,SW,225,4.3,6.5,44,0.00,,CLR,0.00,VWS V14.01,2013-01-22 06:11:00,
2013-01-22 01:15:00,17.8,-0.4,30.09,WNW,292,4.0,4.0,44,0.00,,CLR,0.00,VWS V14.01,2013-01-22 06:15:00,
2013-01-22 01:21:00,17.6,-0.6,30.09,SW,225,2.7,5.4,44,0.00,,CLR,0.00,VWS V14.01,2013-01-22 06:21:00,
2013-01-22 01:25:00,17.6,-1.1,30.09,SW,225,14.8,14.8,43,0.00,,CLR,0.00,VWS V14.01,2013-01-22 06:25:00,
2013-01-22 01:30:00,17.6,-1.1,30.09,East,90,1.3,5.8,43,0.00,,CLR,0.00,VWS V14.01,2013-01-22 06:30:00,
2013-01-22 01:35:00,17.6,-1.1,30.09,SW,225,2.9,6.3,43,0.00,,CLR,0.00,VWS V14.01,2013-01-22 06:35:00,
2013-01-22 01:40:00,17.1,-1.1,30.09,West,270,2.5,4.3,44,0.00,,CLR,0.00,VWS V14.01,2013-01-22 06:40:00,
2013-01-22 01:45:00,16.9,-1.2,30.09,South,180,4.3,6.5,44,0.00,,CLR,0.00,VWS V14.01,2013-01-22 06:45:00,
2013-01-22 01:50:00,16.9,-1.2,30.09,NNW,338,3.1,3.8,44,0.00,,CLR,0.00,VWS V14.01,2013-01-22 06:50:00,
2013-01-22 01:55:00,16.7,-1.4,30.09,West,270,2.5,3.4,44,0.00,,CLR,0.00,VWS V14.01,2013-01-22 06:55:00,
2013-01-22 02:00:00,16.5,-1.6,30.09,NW,315,1.3,3.4,44,0.00,,SCT036,0.00,VWS V14.01,2013-01-22 07:00:00,
2013-01-22 02:05:00,16.3,-1.7,30.09,WNW,292,5.4,6.5,44,0.00,,SCT036,0.00,VWS V14.01,2013-01-22 07:05:00,
2013-01-22 02:10:00,16.5,-1.6,30.09,NW,315,2.5,4.9,44,0.00,,SCT036,0.00,VWS V14.01,2013-01-22 07:10:00,
2013-01-22 02:15:00,16.2,-1.9,30.09,West,270,4.3,4.9,44,0.00,,SCT036,0.00,VWS V14.01,2013-01-22 07:15:00,
2013-01-22 02:20:00,16.2,-2.4,30.12,SW,225,8.5,8.5,43,0.00,,SCT036,0.00,VWS V14.01,2013-01-22 07:20:00,
2013-01-22 02:25:00,16.2,-2.4,30.12,WSW,248,3.6,13.0,43,0.00,,SCT036,0.00,VWS V14.01,2013-01-22 07:25:00,
2013-01-22 02:30:00,16.0,-2.6,30.12,South,180,2.9,5.4,43,0.00,,SCT036,0.00,VWS V14.01,2013-01-22 07:30:00,
2013-01-22 02:35:00,15.4,-2.6,30.12,West,270,3.1,3.6,44,0.00,,SCT036,0.00,VWS V14.01,2013-01-22 07:35:00,
2013-01-22 02:40:00,15.6,-2.9,30.12,SSW,202,2.5,10.7,43,0.00,,SCT036,0.00,VWS V14.01,2013-01-22 07:40:00,
2013-01-22 02:45:00,15.4,-2.6,30.12,SSW,202,3.6,3.6,44,0.00,,SCT036,0.00,VWS V14.01,2013-01-22 07:45:00,
2013-01-22 02:50:00,15.3,-2.7,30.12,South,180,2.2,6.3,44,0.00,,SCT036,0.00,VWS V14.01,2013-01-22 07:50:00,
2013-01-22 02:55:00,15.3,-3.2,30.12,SSE,158,10.7,10.7,43,0.00,,SCT036,0.00,VWS V14.01,2013-01-22 07:55:00,
2013-01-22 03:00:00,15.1,-2.9,30.12,West,270,6.0,6.5,44,0.00,,BKN042,0.00,VWS V14.01,2013-01-22 08:00:00,
2013-01-22 03:05:00,14.9,-3.1,30.12,SW,225,5.4,5.8,44,0.00,,BKN042,0.00,VWS V14.01,2013-01-22 08:05:00,
2013-01-22 03:10:00,14.5,-3.4,30.12,West,270,2.7,3.1,44,0.00,,BKN042,0.00,VWS V14.01,2013-01-22 08:10:00,
2013-01-22 03:15:00,14.2,-3.7,30.12,North,0,2.7,5.6,44,0.00,,BKN042,0.00,VWS V14.01,2013-01-22 08:15:00,
2013-01-22 03:20:00,14.2,-3.7,30.12,NNW,338,3.1,4.0,44,0.00,,BKN042,0.00,VWS V14.01,2013-01-22 08:20:00,
2013-01-22 03:25:00,14.0,-3.4,30.12,NNW,338,4.0,4.9,45,0.00,,BKN042,0.00,VWS V14.01,2013-01-22 08:25:00,
2013-01-22 03:30:00,13.8,-3.6,30.12,NW,315,2.0,7.2,45,0.00,,BKN042,0.00,VWS V14.01,2013-01-22 08:30:00,
2013-01-22 03:35:00,13.6,-3.8,30.12,NE,45,1.6,3.1,45,0.00,,BKN042,0.00,VWS V14.01,2013-01-22 08:35:00,
2013-01-22 03:40:00,13.6,-3.8,30.12,SW,225,2.7,2.9,45,0.00,,BKN042,0.00,VWS V14.01,2013-01-22 08:40:00,
2013-01-22 03:45:00,13.6,-3.8,30.12,West,270,5.8,6.0,45,0.00,,BKN042,0.00,VWS V14.01,2013-01-22 08:45:00,
2013-01-22 03:50:00,13.3,-4.1,30.12,NNE,22,2.7,3.6,45,0.00,,BKN042,0.13,VWS V14.01,2013-01-22 08:50:00,
2013-01-22 03:55:00,13.3,-4.1,30.12,WSW,248,7.8,7.8,45,0.00,,BKN042,0.00,VWS V14.01,2013-01-22 08:55:00,
2013-01-22 04:00:00,13.1,-4.2,30.12,NNW,338,0.9,2.2,45,0.00,,CLR,0.00,VWS V14.01,2013-01-22 09:00:00,
2013-01-22 04:05:00,13.1,-4.2,30.12,NNW,338,3.4,12.8,45,0.00,,CLR,0.00,VWS V14.01,2013-01-22 09:05:00,
2013-01-22 04:10:00,13.1,-4.2,30.12,SSW,202,7.6,7.6,45,0.00,,CLR,0.00,VWS V14.01,2013-01-22 09:10:00,
2013-01-22 04:15:00,12.9,-4.4,30.12,WSW,248,1.3,2.9,45,0.00,,CLR,0.00,VWS V14.01,2013-01-22 09:15:00,
2013-01-22 04:20:00,12.7,-4.6,30.12,SW,225,2.5,5.6,45,0.00,,CLR,0.00,VWS V14.01,2013-01-22 09:20:00,
2013-01-22 04:25:00,12.6,-4.7,30.12,East,90,3.4,3.4,45,0.00,,CLR,0.00,VWS V14.01,2013-01-22 09:25:00,
2013-01-22 04:30:00,12.6,-4.7,30.12,SSW,202,1.6,2.9,45,0.00,,CLR,0.00,VWS V14.01,2013-01-22 09:30:00,
2013-01-22 04:35:00,12.4,-4.9,30.15,WSW,248,1.3,3.1,45,0.00,,CLR,0.00,VWS V14.01,2013-01-22 09:35:00,
2013-01-22 04:40:00,12.2,-5.1,30.15,South,180,7.2,7.2,45,0.00,,CLR,0.00,VWS V14.01,2013-01-22 09:40:00,
2013-01-22 04:45:00,12.0,-5.2,30.15,SW,225,0.9,1.6,45,0.00,,CLR,0.00,VWS V14.01,2013-01-22 09:45:00,
2013-01-22 04:50:00,11.5,-5.7,30.12,South,180,0.0,1.6,45,0.00,,CLR,0.00,VWS V14.01,2013-01-22 09:50:00,
2013-01-22 04:55:00,11.7,-5.6,30.12,SSW,202,3.6,3.6,45,0.00,,CLR,0.00,VWS V14.01,2013-01-22 09:55:00,
2013-01-22 05:00:00,11.1,-6.1,30.12,WSW,248,1.6,1.6,45,0.00,,CLR,0.00,VWS V14.01,2013-01-22 10:00:00,
2013-01-22 05:05:00,10.9,-6.2,30.15,SSW,202,0.0,1.6,45,0.00,,CLR,0.00,VWS V14.01,2013-01-22 10:05:00,
2013-01-22 05:10:00,10.6,-6.6,30.15,SW,225,1.3,1.3,45,0.00,,CLR,0.00,VWS V14.01,2013-01-22 10:10:00,
2013-01-22 05:15:00,10.8,-6.4,30.15,NNW,338,2.9,2.9,45,0.00,,CLR,0.00,VWS V14.01,2013-01-22 10:15:00,
2013-01-22 05:20:00,10.4,-6.7,30.15,NW,315,1.1,2.2,45,0.00,,CLR,0.00,VWS V14.01,2013-01-22 10:20:00,
2013-01-22 05:25:00,10.8,-6.4,30.15,WSW,248,3.1,5.8,45,0.00,,CLR,0.00,VWS V14.01,2013-01-22 10:25:00,
2013-01-22 05:30:00,10.8,-6.4,30.15,SSW,202,0.0,0.0,45,0.00,,CLR,0.00,VWS V14.01,2013-01-22 10:30:00,
2013-01-22 05:35:00,10.4,-6.7,30.15,West,270,1.1,2.2,45,0.00,,CLR,0.00,VWS V14.01,2013-01-22 10:35:00,
2013-01-22 05:40:00,10.2,-6.9,30.15,NE,45,1.6,3.1,45,0.00,,CLR,0.00,VWS V14.01,2013-01-22 10:40:00,
2013-01-22 05:45:00,10.4,-6.7,30.15,NE,45,0.9,2.7,45,0.00,,CLR,0.00,VWS V14.01,2013-01-22 10:45:00,
2013-01-22 05:50:00,10.4,-6.7,30.15,NNE,22,3.4,3.4,45,0.00,,CLR,0.00,VWS V14.01,2013-01-22 10:50:00,
2013-01-22 05:55:00,10.8,-6.4,30.15,West,270,2.9,5.6,45,0.00,,CLR,0.00,VWS V14.01,2013-01-22 10:55:00,
2013-01-22 06:00:00,10.8,-6.4,30.15,SSE,158,1.1,4.3,45,0.00,,CLR,0.00,VWS V14.01,2013-01-22 11:00:00,
2013-01-22 06:05:00,10.4,-6.7,30.15,WSW,248,0.0,2.7,45,0.00,,CLR,0.00,VWS V14.01,2013-01-22 11:05:00,
2013-01-22 06:10:00,10.6,-6.6,30.15,SW,225,2.2,2.2,45,0.00,,CLR,0.00,VWS V14.01,2013-01-22 11:10:00,
2013-01-22 06:15:00,10.8,-6.4,30.15,South,180,3.8,5.8,45,0.00,,CLR,0.00,VWS V14.01,2013-01-22 11:15:00,
2013-01-22 06:20:00,10.8,-6.4,30.15,WNW,292,3.1,4.3,45,0.00,,CLR,0.00,VWS V14.01,2013-01-22 11:20:00,
2013-01-22 06:25:00,10.6,-6.6,30.15,West,270,4.9,5.4,45,0.00,,CLR,0.00,VWS V14.01,2013-01-22 11:25:00,
2013-01-22 06:30:00,10.8,-6.4,30.15,SSE,158,1.6,4.3,45,0.00,,CLR,0.00,VWS V14.01,2013-01-22 11:30:00,
2013-01-22 06:35:00,10.6,-6.6,30.15,SSW,202,3.6,3.8,45,0.00,,CLR,0.00,VWS V14.01,2013-01-22 11:35:00,
2013-01-22 06:40:00,10.6,-6.6,30.15,SW,225,4.7,4.7,45,0.00,,CLR,0.00,VWS V14.01,2013-01-22 11:40:00,
2013-01-22 06:45:00,10.4,-6.7,30.15,WSW,248,1.3,2.7,45,0.00,,CLR,0.00,VWS V14.01,2013-01-22 11:45:00,
2013-01-22 06:50:00,10.2,-6.9,30.15,West,270,1.3,2.7,45,0.00,,CLR,0.00,VWS V14.01,2013-01-22 11:50:00,
2013-01-22 06:55:00,9.9,-7.2,30.15,North,0,1.3,2.2,45,0.00,,CLR,0.00,VWS V14.01,2013-01-22 11:55:00,
2013-01-22 07:00:00,9.7,-7.4,30.15,NNE,22,3.1,3.6,45,0.00,,CLR,0.00,VWS V14.01,2013-01-22 12:00:00,
2013-01-22 07:05:00,9.7,-7.4,30.15,NNW,338,2.9,5.4,45,0.00,,CLR,0.00,VWS V14.01,2013-01-22 12:05:00,
2013-01-22 07:13:00,9.7,-7.4,30.15,West,270,2.5,5.8,45,0.00,,CLR,0.00,VWS V14.01,2013-01-22 12:13:00,
2013-01-22 07:24:00,9.3,-7.7,30.18,SSW,202,1.6,7.6,45,0.00,,CLR,0.00,VWS V14.01,2013-01-22 12:24:00,
2013-01-22 07:29:00,9.3,-7.7,30.18,West,270,2.9,5.8,45,0.00,,CLR,0.00,VWS V14.01,2013-01-22 12:29:00,
2013-01-22 07:34:00,9.5,-7.6,30.18,WNW,292,1.3,5.6,45,0.00,,CLR,0.00,VWS V14.01,2013-01-22 12:34:00,
2013-01-22 07:39:00,9.5,-7.6,30.18,South,180,3.8,7.6,45,0.00,,CLR,0.00,VWS V14.01,2013-01-22 12:39:00,
2013-01-22 07:44:00,9.7,-7.4,30.18,East,90,1.1,4.7,45,0.00,,CLR,0.00,VWS V14.01,2013-01-22 12:44:00,
2013-01-22 07:49:00,9.5,-7.6,30.21,South,180,1.1,6.3,45,0.00,,CLR,0.00,VWS V14.01,2013-01-22 12:49:00,
2013-01-22 07:54:00,9.5,-7.6,30.21,SW,225,3.1,5.4,45,0.00,,CLR,0.00,VWS V14.01,2013-01-22 12:54:00,
2013-01-22 07:59:00,9.7,-7.4,30.21,WNW,292,6.3,7.6,45,0.00,,CLR,0.00,VWS V14.01,2013-01-22 12:59:00,
2013-01-22 08:04:00,9.5,-7.6,30.21,West,270,2.2,4.9,45,0.00,,CLR,0.00,VWS V14.01,2013-01-22 13:04:00,
2013-01-22 08:09:00,9.7,-7.4,30.21,West,270,1.6,5.8,45,0.00,,CLR,0.00,VWS V14.01,2013-01-22 13:09:00,
2013-01-22 08:14:00,9.7,-7.4,30.21,WSW,248,2.0,5.8,45,0.00,,CLR,0.00,VWS V14.01,2013-01-22 13:14:00,
2013-01-22 08:19:00,10.0,-7.1,30.21,West,270,4.0,6.0,45,0.00,,CLR,0.00,VWS V14.01,2013-01-22 13:19:00,
2013-01-22 08:24:00,10.0,-7.1,30.21,North,0,5.4,5.8,45,0.00,,CLR,0.00,VWS V14.01,2013-01-22 13:24:00,
2013-01-22 08:29:00,10.2,-6.9,30.21,West,270,2.7,4.7,45,0.00,,CLR,0.00,VWS V14.01,2013-01-22 13:29:00,
2013-01-22 08:34:00,10.2,-6.9,30.21,West,270,2.2,6.5,45,0.00,,BKN022,0.00,VWS V14.01,2013-01-22 13:34:00,
2013-01-22 08:39:00,10.2,-6.9,30.21,SSW,202,2.2,5.4,45,0.00,,BKN022,0.00,VWS V14.01,2013-01-22 13:39:00,
2013-01-22 08:44:00,10.4,-6.7,30.21,SE,135,4.0,5.8,45,0.00,,BKN022,0.00,VWS V14.01,2013-01-22 13:44:00,
2013-01-22 08:49:00,10.4,-6.7,30.18,WNW,292,2.5,3.8,45,0.00,,BKN022,0.00,VWS V14.01,2013-01-22 13:49:00,
2013-01-22 08:54:00,10.8,-6.4,30.18,NE,45,2.0,4.3,45,0.00,,BKN022,0.00,VWS V14.01,2013-01-22 13:54:00,
2013-01-22 08:59:00,10.9,-6.2,30.18,NW,315,2.5,4.5,45,0.00,,BKN022,0.00,VWS V14.01,2013-01-22 13:59:00,
2013-01-22 09:04:00,11.3,-5.9,30.21,South,180,3.6,4.0,45,0.00,,BKN022,0.00,VWS V14.01,2013-01-22 14:04:00,
2013-01-22 09:09:00,11.5,-5.7,30.21,East,90,2.5,6.5,45,0.00,,BKN022,0.00,VWS V14.01,2013-01-22 14:09:00,
2013-01-22 09:14:00,11.8,-5.4,30.21,West,270,2.5,5.8,45,0.00,,BKN022,0.00,VWS V14.01,2013-01-22 14:14:00,
2013-01-22 09:19:00,12.2,-5.1,30.21,WNW,292,3.8,6.0,45,0.00,,BKN022,0.00,VWS V14.01,2013-01-22 14:19:00,
2013-01-22 09:24:00,13.1,-4.2,30.21,NW,315,9.2,9.2,45,0.00,,BKN022,0.00,VWS V14.01,2013-01-22 14:24:00,
2013-01-22 09:29:00,13.8,-3.6,30.21,WSW,248,2.5,4.9,45,0.00,,BKN022,0.00,VWS V14.01,2013-01-22 14:29:00,
2013-01-22 09:34:00,14.4,-3.1,30.21,NE,45,0.0,6.5,45,0.00,,BKN022,0.00,VWS V14.01,2013-01-22 14:34:00,
2013-01-22 09:39:00,15.8,-1.8,30.21,West,270,2.7,6.5,45,0.00,,BKN022,0.00,VWS V14.01,2013-01-22 14:39:00,
2013-01-22 09:44:00,16.2,-1.9,30.21,NNW,338,3.6,12.8,44,0.00,,BKN022,0.00,VWS V14.01,2013-01-22 14:44:00,
2013-01-22 09:49:00,17.6,-0.6,30.24,North,0,2.7,7.4,44,0.00,,BKN022,0.00,VWS V14.01,2013-01-22 14:49:00,
2013-01-22 09:54:00,19.2,0.4,30.24,West,270,3.6,5.8,43,0.00,,BKN022,0.00,VWS V14.01,2013-01-22 14:54:00,
2013-01-22 09:59:00,18.7,-0.6,30.24,West,270,2.0,5.8,42,0.00,,BKN022,0.00,VWS V14.01,2013-01-22 14:59:00,
2013-01-22 10:04:00,16.9,-2.7,30.24,NNW,338,4.9,11.0,41,0.00,,FEW028,0.00,VWS V14.01,2013-01-22 15:04:00,
2013-01-22 10:09:00,15.8,-3.7,30.24,NNW,338,1.6,7.6,41,0.00,,FEW028,0.00,VWS V14.01,2013-01-22 15:09:00,
2013-01-22 10:14:00,16.2,-3.4,30.24,WSW,248,5.8,7.4,41,0.00,,FEW028,0.00,VWS V14.01,2013-01-22 15:14:00,
2013-01-22 10:19:00,17.6,-1.6,30.24,WSW,248,4.9,8.1,42,0.00,,FEW028,0.00,VWS V14.01,2013-01-22 15:19:00,
2013-01-22 10:24:00,18.7,-1.1,30.24,ESE,112,4.3,9.2,41,0.00,,FEW028,0.00,VWS V14.01,2013-01-22 15:24:00,
2013-01-22 10:29:00,18.3,-2.0,30.24,NNW,338,3.6,6.5,40,0.00,,FEW028,0.00,VWS V14.01,2013-01-22 15:29:00,
2013-01-22 10:34:00,18.7,-1.6,30.24,NNW,338,2.5,8.5,40,0.00,,FEW028,0.00,VWS V14.01,2013-01-22 15:34:00,
2013-01-22 10:39:00,19.0,-1.8,30.24,WSW,248,2.9,7.8,39,0.00,,FEW028,0.00,VWS V14.01,2013-01-22 15:39:00,
2013-01-22 10:44:00,20.1,-0.9,30.24,NW,315,3.6,7.8,39,0.00,,FEW028,0.00,VWS V14.01,2013-01-22 15:44:00,
2013-01-22 10:49:00,21.6,-0.1,30.24,WNW,292,6.3,6.3,38,0.00,,FEW028,0.00,VWS V14.01,2013-01-22 15:49:00,
2013-01-22 10:54:00,23.4,1.5,30.24,WSW,248,2.9,4.7,38,0.00,,FEW028,0.00,VWS V14.01,2013-01-22 15:54:00,
2013-01-22 10:59:00,23.5,0.5,30.24,SSW,202,3.1,7.2,36,0.00,,FEW028,0.00,VWS V14.01,2013-01-22 15:59:00,
2013-01-22 11:04:00,23.2,-0.4,30.24,NW,315,6.5,6.5,35,0.00,,BKN030,0.00,VWS V14.01,2013-01-22 16:04:00,
2013-01-22 11:09:00,25.0,1.2,30.24,NNW,338,2.7,5.4,35,0.00,,BKN030,0.00,VWS V14.01,2013-01-22 16:09:00,
2013-01-22 11:14:00,23.9,0.2,30.24,NW,315,6.3,10.3,35,0.00,,BKN030,0.00,VWS V14.01,2013-01-22 16:14:00,
2013-01-22 11:19:00,24.4,0.7,30.24,NNW,338,4.3,8.5,35,0.00,,BKN030,0.00,VWS V14.01,2013-01-22 16:19:00,
2013-01-22 11:24:00,24.4,0.1,30.24,NW,315,6.0,8.5,34,0.00,,BKN030,0.00,VWS V14.01,2013-01-22 16:24:00,
2013-01-22 11:29:00,24.4,0.1,30.24,WSW,248,3.8,8.5,34,0.00,,BKN030,0.00,VWS V14.01,2013-01-22 16:29:00,
2013-01-22 11:34:00,24.6,0.3,30.21,NW,315,3.4,8.5,34,0.00,,BKN030,0.00,VWS V14.01,2013-01-22 16:34:00,
2013-01-22 11:39:00,25.3,0.3,30.21,NW,315,3.6,6.7,33,0.00,,BKN030,0.00,VWS V14.01,2013-01-22 16:39:00,
2013-01-22 11:44:00,25.3,0.3,30.21,North,0,5.4,10.5,33,0.00,,BKN030,0.00,VWS V14.01,2013-01-22 16:44:00,
2013-01-22 11:49:00,25.0,-0.1,30.21,WNW,292,2.7,7.8,33,0.00,,BKN030,0.00,VWS V14.01,2013-01-22 16:49:00,
2013-01-22 11:54:00,26.6,1.4,30.21,NNW,338,1.6,6.0,33,0.00,,BKN030,0.00,VWS V14.01,2013-01-22 16:54:00,
2013-01-22 11:59:00,26.1,0.9,30.21,SW,225,6.5,7.4,33,0.00,,BKN030,0.00,VWS V14.01,2013-01-22 16:59:00,
2013-01-22 12:04:00,26.1,0.2,30.21,West,270,4.3,8.7,32,0.00,,FEW034,0.00,VWS V14.01,2013-01-22 17:04:00,
2013-01-22 12:09:00,26.1,0.2,30.21,South,180,4.7,7.8,32,0.00,,FEW034,0.00,VWS V14.01,2013-01-22 17:09:00,
2013-01-22 12:14:00,25.5,-0.2,30.21,NW,315,2.5,8.1,32,0.00,,FEW034,0.00,VWS V14.01,2013-01-22 17:14:00,
2013-01-22 12:19:00,26.4,0.6,30.21,NNW,338,1.6,14.5,32,0.00,,FEW034,0.00,VWS V14.01,2013-01-22 17:19:00,
2013-01-22 12:24:00,28.4,2.3,30.21,WSW,248,2.9,8.5,32,0.00,,FEW034,0.00,VWS V14.01,2013-01-22 17:24:00,
2013-01-22 12:29:00,27.3,1.4,30.21,ENE,68,2.5,8.7,32,0.00,,FEW034,0.00,VWS V14.01,2013-01-22 17:29:00,
2013-01-22 12:34:00,28.6,1.8,30.18,NW,315,7.4,8.1,31,0.00,,FEW034,0.00,VWS V14.01,2013-01-22 17:34:00,
2013-01-22 12:39:00,27.9,1.8,30.18,SW,225,4.7,10.1,32,0.00,,FEW034,0.00,VWS V14.01,2013-01-22 17:39:00,
2013-01-22 12:44:00,27.9,1.8,30.18,West,270,3.6,8.5,32,0.00,,FEW034,0.00,VWS V14.01,2013-01-22 17:44:00,
2013-01-22 12:49:00,27.0,0.4,30.21,West,270,3.8,8.1,31,0.00,,FEW034,0.00,VWS V14.01,2013-01-22 17:49:00,
2013-01-22 12:54:00,28.0,1.3,30.21,South,180,5.6,5.6,31,0.00,,FEW034,0.00,VWS V14.01,2013-01-22 17:54:00,
2013-01-22 12:59:00,28.9,2.1,30.21,East,90,3.4,5.8,31,0.00,,FEW034,0.00,VWS V14.01,2013-01-22 17:59:00,
2013-01-22 13:04:00,28.6,1.8,30.21,West,270,3.4,9.6,31,0.00,,CLR,0.00,VWS V14.01,2013-01-22 18:04:00,
2013-01-22 13:09:00,28.8,2.0,30.21,WSW,248,5.8,6.0,31,0.00,,CLR,0.00,VWS V14.01,2013-01-22 18:09:00,
2013-01-22 13:14:00,28.6,1.8,30.21,South,180,8.5,8.5,31,0.00,,CLR,0.00,VWS V14.01,2013-01-22 18:14:00,
2013-01-22 13:19:00,27.5,0.8,30.21,SSW,202,7.4,8.5,31,0.00,,CLR,0.00,VWS V14.01,2013-01-22 18:19:00,
2013-01-22 13:24:00,28.0,1.3,30.21,West,270,5.4,6.5,31,0.00,,CLR,0.00,VWS V14.01,2013-01-22 18:24:00,
2013-01-22 13:29:00,28.4,1.6,30.21,WSW,248,1.6,11.0,31,0.00,,CLR,0.00,VWS V14.01,2013-01-22 18:29:00,
2013-01-22 13:34:00,27.9,1.2,30.21,SW,225,4.3,8.5,31,0.00,,CLR,0.00,VWS V14.01,2013-01-22 18:34:00,
2013-01-22 13:39:00,26.4,-0.1,30.21,SW,225,4.0,8.7,31,0.00,,CLR,0.00,VWS V14.01,2013-01-22 18:39:00,
2013-01-22 13:44:00,28.6,1.8,30.21,North,0,4.0,7.8,31,0.00,,CLR,0.00,VWS V14.01,2013-01-22 18:44:00,
2013-01-22 13:49:00,27.9,1.2,30.21,NW,315,6.0,10.7,31,0.00,,CLR,0.00,VWS V14.01,2013-01-22 18:49:00,
2013-01-22 13:54:00,27.7,1.0,30.21,SW,225,2.5,7.6,31,0.00,,CLR,0.00,VWS V14.01,2013-01-22 18:54:00,
2013-01-22 13:59:00,28.9,2.1,30.21,South,180,2.9,5.6,31,0.00,,CLR,0.00,VWS V14.01,2013-01-22 18:59:00,
2013-01-22 14:04:00,30.0,3.1,30.18,South,180,6.9,6.9,31,0.00,,CLR,0.00,VWS V14.01,2013-01-22 19:04:00,
2013-01-22 14:09:00,28.2,1.5,30.18,WSW,248,2.7,8.7,31,0.00,,CLR,0.00,VWS V14.01,2013-01-22 19:09:00,
2013-01-22 14:14:00,28.2,1.5,30.18,East,90,2.9,13.0,31,0.00,,CLR,0.00,VWS V14.01,2013-01-22 19:14:00,
2013-01-22 14:19:00,25.5,-0.9,30.18,West,270,3.8,11.0,31,0.00,,CLR,0.00,VWS V14.01,2013-01-22 19:19:00,
2013-01-22 14:24:00,27.7,1.0,30.18,SSW,202,5.4,7.4,31,0.00,,CLR,0.00,VWS V14.01,2013-01-22 19:24:00,
2013-01-22 14:29:00,25.3,-1.1,30.18,SSE,158,8.1,13.2,31,0.00,,CLR,0.00,VWS V14.01,2013-01-22 19:29:00,
2013-01-22 14:34:00,24.6,-1.0,30.21,SSW,202,6.0,10.5,32,0.00,,CLR,0.00,VWS V14.01,2013-01-22 19:34:00,
2013-01-22 14:39:00,25.0,-1.4,30.21,South,180,4.7,12.3,31,0.00,,CLR,0.00,VWS V14.01,2013-01-22 19:39:00,
2013-01-22 14:44:00,25.5,-0.9,30.21,SSW,202,11.0,13.9,31,0.00,,CLR,0.00,VWS V14.01,2013-01-22 19:44:00,
2013-01-22 14:49:00,24.4,-1.2,30.21,SSW,202,6.0,12.3,32,0.00,,CLR,0.00,VWS V14.01,2013-01-22 19:49:00,
2013-01-22 14:54:00,25.0,-1.4,30.21,SSE,158,2.0,13.9,31,0.00,,CLR,0.00,VWS V14.01,2013-01-22 19:54:00,
2013-01-22 14:59:00,26.8,0.2,30.21,South,180,3.6,6.3,31,0.00,,CLR,0.00,VWS V14.01,2013-01-22 19:59:00,
2013-01-22 15:04:00,26.2,-0.3,30.21,SW,225,3.6,11.9,31,0.00,,CLR,0.00,VWS V14.01,2013-01-22 20:04:00,
2013-01-22 15:09:00,27.0,0.4,30.21,NW,315,2.5,8.7,31,0.00,,CLR,0.00,VWS V14.01,2013-01-22 20:09:00,
2013-01-22 15:14:00,27.0,0.4,30.21,West,270,4.5,5.6,31,0.00,,CLR,0.00,VWS V14.01,2013-01-22 20:14:00,
2013-01-22 15:19:00,26.6,0.1,30.18,NW,315,3.1,10.5,31,0.00,,CLR,0.00,VWS V14.01,2013-01-22 20:19:00,
2013-01-22 15:24:00,26.4,-1.5,30.18,SSW,202,5.8,6.5,29,0.00,,CLR,0.00,VWS V14.01,2013-01-22 20:24:00,
2013-01-22 15:29:00,26.1,-0.4,30.18,West,270,3.4,8.7,31,0.00,,CLR,0.00,VWS V14.01,2013-01-22 20:29:00,
2013-01-22 15:34:00,26.2,-0.3,30.21,NNW,338,5.8,7.8,31,0.00,,CLR,0.00,VWS V14.01,2013-01-22 20:34:00,
2013-01-22 15:39:00,25.5,-0.9,30.21,WSW,248,6.3,7.8,31,0.00,,CLR,0.00,VWS V14.01,2013-01-22 20:39:00,
2013-01-22 15:44:00,23.5,-2.0,30.21,SW,225,6.5,10.1,32,0.00,,CLR,0.00,VWS V14.01,2013-01-22 20:44:00,
2013-01-22 15:49:00,24.4,-1.2,30.18,SSW,202,2.9,5.8,32,0.00,,CLR,0.00,VWS V14.01,2013-01-22 20:49:00,
2013-01-22 15:54:00,24.4,-1.2,30.18,SW,225,3.4,5.6,32,0.00,,CLR,0.00,VWS V14.01,2013-01-22 20:54:00,
2013-01-22 15:59:00,23.9,-1.7,30.18,WSW,248,2.0,6.0,32,0.00,,CLR,0.00,VWS V14.01,2013-01-22 20:59:00,
2013-01-22 16:04:00,23.5,-2.0,30.21,West,270,3.1,8.5,32,0.00,,CLR,0.00,VWS V14.01,2013-01-22 21:04:00,
2013-01-22 16:09:00,23.9,-1.7,30.21,WSW,248,1.6,4.3,32,0.00,,CLR,0.00,VWS V14.01,2013-01-22 21:09:00,
2013-01-22 16:14:00,23.9,-1.7,30.21,NW,315,4.3,4.9,32,0.00,,CLR,0.00,VWS V14.01,2013-01-22 21:14:00,
2013-01-22 16:19:00,23.2,-2.3,30.21,SW,225,2.2,6.0,32,0.00,,CLR,0.00,VWS V14.01,2013-01-22 21:19:00,
2013-01-22 16:24:00,23.0,-2.5,30.21,NNW,338,2.2,6.3,32,0.00,,CLR,0.00,VWS V14.01,2013-01-22 21:24:00,
2013-01-22 16:29:00,23.0,-2.5,30.21,NW,315,3.6,4.9,32,0.00,,CLR,0.00,VWS V14.01,2013-01-22 21:29:00,
2013-01-22 16:31:00,22.8,-2.6,30.21,NW,315,1.6,6.0,32,0.00,,CLR,0.00,VWS V14.01,2013-01-22 21:31:00,
2013-01-22 16:36:00,22.5,-2.9,30.21,West,270,2.9,6.3,32,0.00,,CLR,0.00,VWS V14.01,2013-01-22 21:36:00,
2013-01-22 16:41:00,21.7,-3.6,30.21,West,270,3.8,7.6,32,0.00,,CLR,0.00,VWS V14.01,2013-01-22 21:41:00,
2013-01-22 16:46:00,21.9,-2.8,30.21,South,180,4.3,7.2,33,0.00,,CLR,0.00,VWS V14.01,2013-01-22 21:46:00,
2013-01-22 16:51:00,21.2,-3.4,30.21,SSW,202,2.0,5.4,33,0.00,,CLR,0.00,VWS V14.01,2013-01-22 21:51:00,
2013-01-22 16:56:00,20.7,-3.9,30.21,South,180,5.4,6.3,33,0.00,,CLR,0.00,VWS V14.01,2013-01-22 21:56:00,
2013-01-22 17:01:00,20.5,-4.0,30.21,ESE,112,0.0,2.2,33,0.00,,CLR,0.00,VWS V14.01,2013-01-22 22:01:00,
2013-01-22 17:06:00,19.9,-4.5,30.18,SW,225,1.3,3.6,33,0.00,,CLR,0.00,VWS V14.01,2013-01-22 22:06:00,
2013-01-22 17:11:00,19.2,-5.2,30.18,SSW,202,4.9,7.8,33,0.00,,CLR,0.00,VWS V14.01,2013-01-22 22:11:00,
2013-01-22 17:16:00,18.7,-5.6,30.18,ESE,112,5.4,6.9,33,0.00,,CLR,0.00,VWS V14.01,2013-01-22 22:16:00,
2013-01-22 17:21:00,18.3,-6.0,30.21,SSE,158,3.8,5.4,33,0.00,,CLR,0.00,VWS V14.01,2013-01-22 22:21:00,
2013-01-22 17:26:00,18.1,-6.1,30.21,SSW,202,2.0,2.0,33,0.00,,CLR,0.00,VWS V14.01,2013-01-22 22:26:00,
2013-01-22 17:31:00,17.8,-6.4,30.21,South,180,2.9,3.4,33,0.00,,CLR,0.00,VWS V14.01,2013-01-22 22:31:00,
2013-01-22 17:36:00,17.8,-6.4,30.21,SW,225,2.7,3.8,33,0.00,,CLR,0.00,VWS V14.01,2013-01-22 22:36:00,
2013-01-22 17:41:00,17.4,-6.1,30.21,South,180,0.0,0.0,34,0.00,,CLR,0.00,VWS V14.01,2013-01-22 22:41:00,
2013-01-22 17:46:00,17.2,-6.3,30.21,West,270,0.0,3.6,34,0.00,,CLR,0.00,VWS V14.01,2013-01-22 22:46:00,
2013-01-22 17:51:00,16.9,-6.6,30.21,South,180,2.0,2.9,34,0.00,,CLR,0.00,VWS V14.01,2013-01-22 22:51:00,
2013-01-22 17:56:00,16.7,-6.8,30.21,SW,225,3.1,3.6,34,0.00,,CLR,0.00,VWS V14.01,2013-01-22 22:56:00,
2013-01-22 18:01:00,16.7,-6.8,30.21,WSW,248,3.1,6.0,34,0.00,,CLR,0.00,VWS V14.01,2013-01-22 23:01:00,
2013-01-22 18:06:00,16.7,-6.8,30.21,South,180,7.6,7.6,34,0.00,,CLR,0.00,VWS V14.01,2013-01-22 23:06:00,
2013-01-22 18:11:00,16.7,-6.8,30.21,South,180,2.7,4.7,34,0.00,,CLR,0.00,VWS V14.01,2013-01-22 23:11:00,
2013-01-22 18:16:00,16.5,-6.9,30.21,SW,225,1.1,3.1,34,0.00,,CLR,0.00,VWS V14.01,2013-01-22 23:16:00,
2013-01-22 18:21:00,16.3,-6.5,30.21,SW,225,0.0,2.7,35,0.00,,CLR,0.00,VWS V14.01,2013-01-22 23:21:00,
2013-01-22 18:26:00,15.6,-7.2,30.21,South,180,2.5,3.1,35,0.00,,CLR,0.00,VWS V14.01,2013-01-22 23:26:00,
2013-01-22 18:31:00,15.8,-7.0,30.21,SSW,202,2.5,2.5,35,0.00,,CLR,0.00,VWS V14.01,2013-01-22 23:31:00,
2013-01-22 18:36:00,15.4,-6.7,30.21,SSE,158,0.9,1.6,36,0.00,,CLR,0.00,VWS V14.01,2013-01-22 23:36:00,
2013-01-22 18:41:00,14.9,-7.8,30.21,West,270,0.0,0.9,35,0.00,,CLR,0.00,VWS V14.01,2013-01-22 23:41:00,
2013-01-22 18:46:00,15.1,-7.1,30.21,SW,225,1.6,2.7,36,0.00,,CLR,0.00,VWS V14.01,2013-01-22 23:46:00,
2013-01-22 18:51:00,14.4,-7.7,30.21,WNW,292,1.6,2.7,36,0.00,,CLR,0.00,VWS V14.01,2013-01-22 23:51:00,
2013-01-22 18:56:00,14.4,-7.7,30.21,SSW,202,1.6,2.2,36,0.00,,CLR,0.00,VWS V14.01,2013-01-22 23:56:00,
2013-01-22 19:00:00,14.5,-7.5,30.21,SW,225,1.1,1.1,36,0.00,,CLR,0.00,VWS V14.01,2013-01-23 00:00:00,
2013-01-22 19:06:00,14.4,-7.7,30.24,West,270,0.0,1.3,36,0.00,,CLR,0.00,VWS V14.01,2013-01-23 00:06:00,
2013-01-22 19:10:00,14.2,-7.9,30.24,SSW,202,0.9,1.1,36,0.00,,CLR,0.00,VWS V14.01,2013-01-23 00:10:00,
2013-01-22 19:15:00,14.2,-7.3,30.24,WNW,292,1.6,3.1,37,0.00,,CLR,0.00,VWS V14.01,2013-01-23 00:15:00,
2013-01-22 19:20:00,13.8,-7.6,30.24,NW,315,2.0,2.5,37,0.00,,CLR,0.00,VWS V14.01,2013-01-23 00:20:00,
2013-01-22 19:25:00,13.1,-8.3,30.24,NNW,338,0.0,1.3,37,0.00,,CLR,0.00,VWS V14.01,2013-01-23 00:25:00,
2013-01-22 19:30:00,12.2,-9.1,30.24,NW,315,0.0,0.0,37,0.00,,CLR,0.00,VWS V14.01,2013-01-23 00:30:00,
2013-01-22 19:35:00,11.7,-9.6,30.21,NW,315,1.3,2.2,37,0.00,,CLR,0.00,VWS V14.01,2013-01-23 00:35:00,
2013-01-22 19:40:00,11.7,-9.6,30.21,South,180,0.0,0.0,37,0.00,,CLR,0.00,VWS V14.01,2013-01-23 00:40:00,
2013-01-22 19:45:00,12.2,-9.1,30.21,South,180,2.0,2.7,37,0.00,,CLR,0.00,VWS V14.01,2013-01-23 00:45:00,
2013-01-22 19:50:00,12.6,-8.8,30.21,NNW,338,0.0,0.0,37,0.00,,CLR,0.00,VWS V14.01,2013-01-23 00:50:00,
2013-01-22 19:55:00,12.2,-9.1,30.21,West,270,0.0,1.6,37,0.00,,CLR,0.00,VWS V14.01,2013-01-23 00:55:00,
2013-01-22 20:00:00,11.8,-9.4,30.21,ESE,112,0.0,2.0,37,0.00,,CLR,0.00,VWS V14.01,2013-01-23 01:00:00,
2013-01-22 20:05:00,11.3,-9.9,30.21,NW,315,0.0,1.6,37,0.00,,CLR,0.00,VWS V14.01,2013-01-23 01:05:00,
2013-01-22 20:10:00,10.9,-10.2,30.21,NW,315,0.0,1.1,37,0.00,,CLR,0.00,VWS V14.01,2013-01-23 01:10:00,
2013-01-22 20:15:00,10.4,-10.7,30.21,WNW,292,0.0,0.0,37,0.00,,CLR,0.00,VWS V14.01,2013-01-23 01:15:00,
2013-01-22 20:20:00,10.0,-11.0,30.21,WNW,292,0.0,0.0,37,0.00,,CLR,0.00,VWS V14.01,2013-01-23 01:20:00,
2013-01-22 20:25:00,9.5,-11.5,30.21,WNW,292,0.0,0.0,37,0.00,,CLR,0.00,VWS V14.01,2013-01-23 01:25:00,
2013-01-22 20:30:00,9.5,-11.5,30.21,WNW,292,0.0,0.0,37,0.00,,CLR,0.00,VWS V14.01,2013-01-23 01:30:00,
2013-01-22 20:35:00,9.9,-11.2,30.24,SW,225,0.9,0.9,37,0.00,,CLR,0.00,VWS V14.01,2013-01-23 01:35:00,
2013-01-22 20:40:00,10.2,-10.9,30.24,NE,45,1.1,1.6,37,0.00,,CLR,0.00,VWS V14.01,2013-01-23 01:40:00,
2013-01-22 20:45:00,10.4,-10.7,30.24,NNW,338,1.1,2.0,37,0.00,,CLR,0.00,VWS V14.01,2013-01-23 01:45:00,
2013-01-22 20:50:00,10.8,-10.4,30.24,South,180,1.6,1.6,37,0.00,,CLR,0.00,VWS V14.01,2013-01-23 01:50:00,
2013-01-22 20:55:00,11.7,-9.6,30.24,North,0,2.9,2.9,37,0.00,,CLR,0.00,VWS V14.01,2013-01-23 01:55:00,
2013-01-22 21:00:00,12.2,-9.1,30.24,South,180,0.0,0.9,37,0.00,,CLR,0.00,VWS V14.01,2013-01-23 02:00:00,
2013-01-22 21:05:00,12.0,-9.2,30.24,West,270,0.9,1.6,37,0.00,,CLR,0.00,VWS V14.01,2013-01-23 02:05:00,
2013-01-22 21:10:00,12.2,-9.1,30.24,WNW,292,0.0,0.0,37,0.00,,CLR,0.00,VWS V14.01,2013-01-23 02:10:00,
2013-01-22 21:15:00,12.2,-9.1,30.24,SE,135,1.6,1.6,37,0.00,,CLR,0.00,VWS V14.01,2013-01-23 02:15:00,
2013-01-22 21:20:00,12.7,-8.6,30.24,West,270,1.3,2.5,37,0.00,,CLR,0.00,VWS V14.01,2013-01-23 02:20:00,
2013-01-22 21:25:00,12.6,-8.8,30.24,NW,315,0.9,1.6,37,0.00,,CLR,0.00,VWS V14.01,2013-01-23 02:25:00,
2013-01-22 21:30:00,12.7,-8.6,30.24,WNW,292,0.0,0.0,37,0.00,,CLR,0.00,VWS V14.01,2013-01-23 02:30:00,
2013-01-22 21:35:00,12.9,-8.4,30.24,WNW,292,2.0,2.0,37,0.00,,CLR,0.00,VWS V14.01,2013-01-23 02:35:00,
2013-01-22 21:40:00,12.9,-8.4,30.24,NNW,338,2.7,2.7,37,0.00,,CLR,0.00,VWS V14.01,2013-01-23 02:40:00,
2013-01-22 21:45:00,12.9,-8.4,30.24,NNW,338,1.1,1.6,37,0.00,,CLR,0.00,VWS V14.01,2013-01-23 02:45:00,
2013-01-22 21:50:00,13.1,-8.3,30.24,SW,225,2.0,2.9,37,0.00,,CLR,0.00,VWS V14.01,2013-01-23 02:50:00,
2013-01-22 21:55:00,13.5,-7.9,30.24,NNW,338,0.0,1.1,37,0.00,,CLR,0.00,VWS V14.01,2013-01-23 02:55:00,
2013-01-22 22:00:00,13.5,-7.9,30.24,WNW,292,0.0,2.0,37,0.00,,CLR,0.00,VWS V14.01,2013-01-23 03:00:00,
2013-01-22 22:05:00,13.5,-7.9,30.24,NNE,22,2.2,2.2,37,0.00,,CLR,0.00,VWS V14.01,2013-01-23 03:05:00,
2013-01-22 22:10:00,13.8,-7.6,30.24,SSW,202,0.0,0.0,37,0.00,,CLR,0.00,VWS V14.01,2013-01-23 03:10:00,
2013-01-22 22:15:00,13.8,-7.6,30.24,SE,135,1.1,1.3,37,0.00,,CLR,0.00,VWS V14.01,2013-01-23 03:15:00,
2013-01-22 22:20:00,13.6,-7.8,30.24,South,180,0.0,1.1,37,0.00,,CLR,0.00,VWS V14.01,2013-01-23 03:20:00,
2013-01-22 22:25:00,13.6,-7.8,30.24,SW,225,0.0,2.2,37,0.00,,CLR,0.00,VWS V14.01,2013-01-23 03:25:00,
2013-01-22 22:30:00,13.3,-8.1,30.24,West,270,0.0,0.0,37,0.00,,CLR,0.00,VWS V14.01,2013-01-23 03:30:00,
2013-01-22 22:35:00,12.9,-8.4,30.24,West,270,0.0,0.0,37,0.00,,CLR,0.00,VWS V14.01,2013-01-23 03:35:00,
2013-01-22 22:40:00,12.7,-8.6,30.24,West,270,0.0,1.3,37,0.00,,CLR,0.00,VWS V14.01,2013-01-23 03:40:00,
2013-01-22 22:45:00,12.6,-8.8,30.24,SE,135,2.7,3.1,37,0.00,,CLR,0.00,VWS V14.01,2013-01-23 03:45:00,
2013-01-22 22:50:00,12.6,-8.8,30.24,South,180,0.0,0.0,37,0.00,,CLR,0.00,VWS V14.01,2013-01-23 03:50:00,
2013-01-22 22:55:00,11.8,-9.4,30.24,SSW,202,2.7,2.7,37,0.00,,CLR,0.00,VWS V14.01,2013-01-23 03:55:00,
2013-01-22 23:00:00,12.2,-9.1,30.24,SSW,202,2.7,3.1,37,0.00,,CLR,0.00,VWS V14.01,2013-01-23 04:00:00,
2013-01-22 23:05:00,12.0,-9.2,30.27,South,180,0.0,0.0,37,0.00,,CLR,0.00,VWS V14.01,2013-01-23 04:05:00,
2013-01-22 23:10:00,11.8,-9.4,30.27,NW,315,2.2,2.2,37,0.00,,CLR,0.00,VWS V14.01,2013-01-23 04:10:00,
2013-01-22 23:15:00,11.5,-9.7,30.27,NNW,338,0.0,0.0,37,0.00,,CLR,0.00,VWS V14.01,2013-01-23 04:15:00,
2013-01-22 23:20:00,11.3,-9.9,30.24,NW,315,0.0,0.0,37,0.00,,CLR,0.00,VWS V14.01,2013-01-23 04:20:00,
2013-01-22 23:25:00,10.8,-10.4,30.24,NW,315,0.0,1.3,37,0.00,,CLR,0.00,VWS V14.01,2013-01-23 04:25:00,
2013-01-22 23:30:00,10.9,-10.2,30.24,SE,135,1.6,2.7,37,0.00,,CLR,0.00,VWS V14.01,2013-01-23 04:30:00,
2013-01-22 23:35:00,11.3,-9.9,30.27,West,270,0.0,1.3,37,0.00,,CLR,0.00,VWS V14.01,2013-01-23 04:35:00,
2013-01-22 23:40:00,11.1,-10.1,30.27,NW,315,1.1,2.0,37,0.00,,CLR,0.00,VWS V14.01,2013-01-23 04:40:00,
2013-01-22 23:45:00,11.1,-10.1,30.27,SW,225,0.0,0.0,37,0.00,,CLR,0.00,VWS V14.01,2013-01-23 04:45:00,
2013-01-22 23:50:00,10.9,-10.2,30.27,WNW,292,0.0,0.0,37,0.00,,CLR,0.00,VWS V14.01,2013-01-23 04:50:00,
2013-01-22 23:55:00,11.7,-9.6,30.27,West,270,0.0,1.3,37,0.00,,CLR,0.00,VWS V14.01,2013-01-23 04:55:00,